Pagina principale
METAR-TAF:

METAR-TAF

Aeroporti :

Torino, Italia

Aeroporto di Torino-Caselle

latitudine: 45-13N, longitudine: 007-39E, altezza: 301 m

Osservazione

Il bollettino è stato emesso 17 minuti fa, alle 13:20 UTC
Vento 4 kt da est/nord-est, variando fra nord e sud-est
Temperature 21°C
Umidità 28%
Pressione 1011 hPa
Visibilità 10 km o più
nessuna nube inferiore a 1500 m e nessun cumulonembo

METAR: LIMF 191320Z 07004KT 010V130 CAVOK 21/02 Q1011

Ora: 15:37 (13:37 UTC)

Previsione

Il bollettino è stato emesso 2 ore e 37 minuti fa, alle 11:00 UTC
Previsione valida dal 19 alle 12 UTC al 20 alle 12 UTC
Vento 5 kt da direzioni variabili
Visibilità 10 km o più
Nubi sparse ad un'altezza di 9000 ft

TAF: LIMF 191100Z 1912/2012 VRB05KT 9999 SCT090

Osservazioni e previsioni meteorologiche di più di 4000 aeroporti (messaggi METAR e TAF).

Le stazioni disponibili sono rappresentate dai dischi gialli e rossi sulla carta.

Puntare il mouse per vedere il nome della stazione.

Clicca sopra per visualizzare le osservazioni e previsioni meteorologiche.

Per cambiare la mappa : fare clic sui pulsanti verdi con una croce nera per ingrandire, il pulsante verde con un trattino per diminuire, o sulla freccia verde per le mappe adiacenti.


METAR-TAF: